Ashton, ID (83420)

3:20 PM MDT on June 22, 2017 (GMT -0600)
3600E | | Change Station
Active Advisory: Flood Warning

Elev 5292 ft 44.05 °N, 111.44 °W | Updated 12 seconds ago

Clear
Clear
70.9 °F
Feels Like 75 °F
N
16.3
Wind Variable Wind from NW
Gusts 17.5 mph

Today
High -- | Low -- °F
--% Chance of Precip.
Yesterday
High -- | Low -- °F
Precip. -- in
Pressure 29.97 in
Visibility 10.0 miles
Clouds Clear
Heat Index 75 °F
Dew Point 31 °F
Humidity 23%
Rainfall 0.00 in
Snow Depth Not available.
5:43 AM 9:12 PM
Waning Crescent, 2% visible
METAR KRXE 222053Z AUTO 19008KT 10SM CLR 23/M02 A3008 RMK AO2 SLP147 T02331022 58007
Pressure 29.97 in
Visibility 10.0 miles
Clouds Clear
Heat Index 75 °F
Dew Point 31 °F
Humidity 23%
Rainfall 0.00 in
Snow Depth Not available.
5:43 AM 9:12 PM
Waning Crescent, 2% visible
METAR KRXE 222053Z AUTO 19008KT 10SM CLR 23/M02 A3008 RMK AO2 SLP147 T02331022 58007

Get Your Daily Forecast Email!

Thanks for signing up!

Be on the lookout for a verification email in your inbox.

You'll start receiving severe weather alerts in your inbox..

×

10-Day Weather Forecast

Almanac

Astronomy

Jun. 22, 2017 Rise Set
Actual Time
Civil Twilight
Nautical Twilight
Astronomical Twilight
Moon
Length of Visible Light
Length of Day
Tomorrow will be .
, % of the Moon is Illuminated

Today's Extremes

State Highs State Lows

Community

WunderPhotos

Category 6

Welcome to Category 6. This is the collective home for Weather Underground's featured writeups by Dr. Jeff Masters (right), Bob Henson (left), Chris Burt, and other regular contributors.

Nearby

Air Quality

  Air Quality AQ Index Pollutant
Not available.

Snow Depth

Station Depth Elevation

Earthquake Activity

City Distance Mag. Time & Date
Minimum magnitude displayed is 2.5.

Coastal Water Temperatures

Place Temperature

Stations

Nearby Weather Stations

Station Location Temp. Windchill Dew Point Humidity Wind Precip. Elev Updated Type
                   

Watches & Warnings

Flood Warning
Issued: 10:39 AM MDT Jun. 22, 2017 – National Weather Service

The Flood Warning continues for
the Teton river near Driggs.
* At 10:30 am Thursday the stage was 4.4 feet.
* Flood stage is 4.2 feet.
* Minor flooding is occurring and minor flooding is forecast. A
crest of 4.6 feet is forecast to occur Thursday evening. The river
will begin to fall on Friday. The river is forecast to fall below
flood stage on Saturday.
* Impact... at 5.0 feet... livestock and pasture land will be flooded.
Cache bridge boat ramp is under water.



                       Fld observed forecast 6 am
location stg stg day time Fri Sat sun

Teton river
Teton river near dri 4.2 4.4 Thu 10 am 4.6 4.3 3.9




Lat... Lon 4389 11136 4393 11115 4362 11107 4360 11121